sensor_id;sensor_type;location;lat;lon;timestamp;pressure;altitude;pressure_sealevel;temperature;humidity
15750;BME280;7976;52.526;13.326;2023-07-08T00:01:14;101611.94;;;21.73;54.87
15750;BME280;7976;52.526;13.326;2023-07-08T00:03:41;101616.41;;;21.73;54.91
15750;BME280;7976;52.526;13.326;2023-07-08T00:06:19;101620.03;;;21.72;55.49
15750;BME280;7976;52.526;13.326;2023-07-08T00:08:47;101618.41;;;21.69;55.32
15750;BME280;7976;52.526;13.326;2023-07-08T00:11:15;101615.09;;;21.66;55.76
15750;BME280;7976;52.526;13.326;2023-07-08T00:13:42;101611.69;;;21.64;55.78
15750;BME280;7976;52.526;13.326;2023-07-08T00:16:11;101610.84;;;21.63;56.15
15750;BME280;7976;52.526;13.326;2023-07-08T00:18:38;101611.91;;;21.61;55.83
15750;BME280;7976;52.526;13.326;2023-07-08T00:21:11;101612.13;;;21.58;56.21
15750;BME280;7976;52.526;13.326;2023-07-08T00:23:40;101612.22;;;21.56;56.53
15750;BME280;7976;52.526;13.326;2023-07-08T00:26:13;101611.47;;;21.54;56.35
15750;BME280;7976;52.526;13.326;2023-07-08T00:28:42;101608.06;;;21.52;56.47
15750;BME280;7976;52.526;13.326;2023-07-08T00:31:10;101616.91;;;21.53;55.85
15750;BME280;7976;52.526;13.326;2023-07-08T00:33:38;101606.16;;;21.54;55.29
15750;BME280;7976;52.526;13.326;2023-07-08T00:36:12;101606.16;;;21.54;54.89
15750;BME280;7976;52.526;13.326;2023-07-08T00:38:41;101606.38;;;21.51;54.71
15750;BME280;7976;52.526;13.326;2023-07-08T00:41:15;101611.69;;;21.51;54.26
15750;BME280;7976;52.526;13.326;2023-07-08T00:43:48;101606.75;;;21.45;53.52
15750;BME280;7976;52.526;13.326;2023-07-08T00:46:31;101610.84;;;21.38;53.41
15750;BME280;7976;52.526;13.326;2023-07-08T00:49:14;101611.78;;;21.37;53.07
15750;BME280;7976;52.526;13.326;2023-07-08T00:51:44;101609.09;;;21.37;53.75
15750;BME280;7976;52.526;13.326;2023-07-08T00:54:12;101616.16;;;21.38;54.10
15750;BME280;7976;52.526;13.326;2023-07-08T00:56:43;101608.16;;;21.38;54.31
15750;BME280;7976;52.526;13.326;2023-07-08T00:59:21;101599.41;;;21.36;54.77
15750;BME280;7976;52.526;13.326;2023-07-08T01:01:50;101604.84;;;21.35;54.84
15750;BME280;7976;52.526;13.326;2023-07-08T01:04:22;101606.66;;;21.34;55.19
15750;BME280;7976;52.526;13.326;2023-07-08T01:06:58;101614.84;;;21.31;55.47
15750;BME280;7976;52.526;13.326;2023-07-08T01:09:30;101607.81;;;21.30;55.40
15750;BME280;7976;52.526;13.326;2023-07-08T01:12:05;101609.94;;;21.25;54.87
15750;BME280;7976;52.526;13.326;2023-07-08T01:14:37;101605.78;;;21.21;54.32
15750;BME280;7976;52.526;13.326;2023-07-08T01:17:08;101601.41;;;21.20;54.17
15750;BME280;7976;52.526;13.326;2023-07-08T01:19:40;101601.50;;;21.18;54.68
15750;BME280;7976;52.526;13.326;2023-07-08T01:22:09;101600.84;;;21.15;55.60
15750;BME280;7976;52.526;13.326;2023-07-08T01:24:39;101593.81;;;21.14;55.55
15750;BME280;7976;52.526;13.326;2023-07-08T01:27:11;101592.25;;;21.11;55.82
15750;BME280;7976;52.526;13.326;2023-07-08T01:29:39;101600.22;;;21.11;55.73
15750;BME280;7976;52.526;13.326;2023-07-08T01:32:09;101601.16;;;21.10;55.14
15750;BME280;7976;52.526;13.326;2023-07-08T01:34:42;101594.97;;;21.10;54.95
15750;BME280;7976;52.526;13.326;2023-07-08T01:37:17;101586.38;;;21.06;55.13
15750;BME280;7976;52.526;13.326;2023-07-08T01:39:44;101590.84;;;21.06;55.44
15750;BME280;7976;52.526;13.326;2023-07-08T01:42:11;101594.25;;;21.08;55.34
15750;BME280;7976;52.526;13.326;2023-07-08T01:44:38;101582.84;;;21.06;55.27
15750;BME280;7976;52.526;13.326;2023-07-08T01:47:13;101584.00;;;21.02;55.00
15750;BME280;7976;52.526;13.326;2023-07-08T01:49:43;101582.50;;;20.98;55.47
15750;BME280;7976;52.526;13.326;2023-07-08T01:52:12;101580.75;;;20.97;55.20
15750;BME280;7976;52.526;13.326;2023-07-08T01:54:42;101579.91;;;20.96;55.63
15750;BME280;7976;52.526;13.326;2023-07-08T01:57:09;101579.28;;;20.93;56.11
15750;BME280;7976;52.526;13.326;2023-07-08T01:59:36;101577.66;;;20.90;56.09
15750;BME280;7976;52.526;13.326;2023-07-08T02:02:03;101576.06;;;20.88;55.90
15750;BME280;7976;52.526;13.326;2023-07-08T02:04:30;101579.75;;;20.85;55.37
15750;BME280;7976;52.526;13.326;2023-07-08T02:06:59;101579.09;;;20.82;55.58
15750;BME280;7976;52.526;13.326;2023-07-08T02:09:27;101574.97;;;20.78;55.64
15750;BME280;7976;52.526;13.326;2023-07-08T02:11:56;101588.66;;;20.72;55.28
15750;BME280;7976;52.526;13.326;2023-07-08T02:14:23;101583.75;;;20.66;55.38
15750;BME280;7976;52.526;13.326;2023-07-08T02:16:50;101585.00;;;20.60;55.33
15750;BME280;7976;52.526;13.326;2023-07-08T02:19:17;101590.41;;;20.59;55.17
15750;BME280;7976;52.526;13.326;2023-07-08T02:21:45;101586.06;;;20.58;55.72
15750;BME280;7976;52.526;13.326;2023-07-08T02:24:11;101580.72;;;20.58;56.32
15750;BME280;7976;52.526;13.326;2023-07-08T02:26:38;101579.97;;;20.56;56.49
15750;BME280;7976;52.526;13.326;2023-07-08T02:29:08;101579.22;;;20.54;57.26
15750;BME280;7976;52.526;13.326;2023-07-08T02:31:35;101577.53;;;20.53;57.01
15750;BME280;7976;52.526;13.326;2023-07-08T02:34:01;101581.13;;;20.52;57.01
15750;BME280;7976;52.526;13.326;2023-07-08T02:36:29;101580.34;;;20.50;56.99
15750;BME280;7976;52.526;13.326;2023-07-08T02:38:55;101580.56;;;20.47;57.60
15750;BME280;7976;52.526;13.326;2023-07-08T02:41:22;101581.31;;;20.49;57.27
15750;BME280;7976;52.526;13.326;2023-07-08T02:43:49;101579.63;;;20.48;57.70
15750;BME280;7976;52.526;13.326;2023-07-08T02:46:17;101576.19;;;20.46;57.88
15750;BME280;7976;52.526;13.326;2023-07-08T02:48:44;101577.13;;;20.45;57.85
15750;BME280;7976;52.526;13.326;2023-07-08T02:51:11;101576.41;;;20.43;58.06
15750;BME280;7976;52.526;13.326;2023-07-08T02:53:38;101576.56;;;20.40;58.05
15750;BME280;7976;52.526;13.326;2023-07-08T02:56:05;101580.41;;;20.36;58.26
15750;BME280;7976;52.526;13.326;2023-07-08T02:58:31;101587.63;;;20.34;58.54
15750;BME280;7976;52.526;13.326;2023-07-08T03:01:00;101579.75;;;20.32;58.32
15750;BME280;7976;52.526;13.326;2023-07-08T03:03:28;101586.84;;;20.32;59.04
15750;BME280;7976;52.526;13.326;2023-07-08T03:05:59;101579.94;;;20.29;58.91
15750;BME280;7976;52.526;13.326;2023-07-08T03:08:27;101571.22;;;20.27;58.54
15750;BME280;7976;52.526;13.326;2023-07-08T03:10:57;101579.28;;;20.26;58.67
15750;BME280;7976;52.526;13.326;2023-07-08T03:13:25;101584.81;;;20.23;58.79
15750;BME280;7976;52.526;13.326;2023-07-08T03:15:54;101583.28;;;20.19;59.26
15750;BME280;7976;52.526;13.326;2023-07-08T03:18:21;101573.75;;;20.15;59.38
15750;BME280;7976;52.526;13.326;2023-07-08T03:20:54;101578.50;;;20.10;59.40
15750;BME280;7976;52.526;13.326;2023-07-08T03:23:22;101576.25;;;20.04;59.51
15750;BME280;7976;52.526;13.326;2023-07-08T03:25:50;101578.13;;;20.02;60.25
15750;BME280;7976;52.526;13.326;2023-07-08T03:28:18;101570.34;;;19.98;60.87
15750;BME280;7976;52.526;13.326;2023-07-08T03:30:52;101571.38;;;19.96;60.59
15750;BME280;7976;52.526;13.326;2023-07-08T03:33:20;101573.31;;;19.94;61.02
15750;BME280;7976;52.526;13.326;2023-07-08T03:35:47;101571.59;;;19.93;60.90
15750;BME280;7976;52.526;13.326;2023-07-08T03:38:16;101569.03;;;19.91;61.33
15750;BME280;7976;52.526;13.326;2023-07-08T03:40:43;101576.22;;;19.89;61.54
15750;BME280;7976;52.526;13.326;2023-07-08T03:43:10;101566.66;;;19.87;61.72
15750;BME280;7976;52.526;13.326;2023-07-08T03:45:37;101570.34;;;19.84;61.80
15750;BME280;7976;52.526;13.326;2023-07-08T03:48:05;101572.19;;;19.84;62.20
15750;BME280;7976;52.526;13.326;2023-07-08T03:50:33;101576.63;;;19.83;62.05
15750;BME280;7976;52.526;13.326;2023-07-08T03:52:59;101566.19;;;19.80;62.68
15750;BME280;7976;52.526;13.326;2023-07-08T03:55:30;101572.34;;;19.81;62.78
15750;BME280;7976;52.526;13.326;2023-07-08T03:57:58;101569.78;;;19.79;63.11
15750;BME280;7976;52.526;13.326;2023-07-08T04:00:28;101580.41;;;19.79;62.77
15750;BME280;7976;52.526;13.326;2023-07-08T04:02:58;101577.94;;;19.76;62.68
15750;BME280;7976;52.526;13.326;2023-07-08T04:05:26;101576.06;;;19.78;62.80
15750;BME280;7976;52.526;13.326;2023-07-08T04:07:55;101578.91;;;19.75;62.76
15750;BME280;7976;52.526;13.326;2023-07-08T04:10:22;101576.34;;;19.74;62.69
15750;BME280;7976;52.526;13.326;2023-07-08T04:12:50;101584.22;;;19.75;62.92
15750;BME280;7976;52.526;13.326;2023-07-08T04:15:17;101583.34;;;19.75;63.07
15750;BME280;7976;52.526;13.326;2023-07-08T04:17:48;101578.72;;;19.78;63.09
15750;BME280;7976;52.526;13.326;2023-07-08T04:20:18;101576.81;;;19.80;62.63
15750;BME280;7976;52.526;13.326;2023-07-08T04:22:45;101579.38;;;19.82;63.28
15750;BME280;7976;52.526;13.326;2023-07-08T04:25:13;101571.50;;;19.80;63.53
15750;BME280;7976;52.526;13.326;2023-07-08T04:27:41;101579.19;;;19.85;63.39
15750;BME280;7976;52.526;13.326;2023-07-08T04:30:21;101577.28;;;19.87;63.44
15750;BME280;7976;52.526;13.326;2023-07-08T04:32:50;101578.88;;;19.89;63.39
15750;BME280;7976;52.526;13.326;2023-07-08T04:35:17;101575.88;;;19.95;63.24
15750;BME280;7976;52.526;13.326;2023-07-08T04:37:44;101581.75;;;20.01;63.04
15750;BME280;7976;52.526;13.326;2023-07-08T04:40:18;101575.09;;;20.08;63.59
15750;BME280;7976;52.526;13.326;2023-07-08T04:42:47;101576.50;;;20.13;62.78
15750;BME280;7976;52.526;13.326;2023-07-08T04:45:17;101585.84;;;20.20;62.74
15750;BME280;7976;52.526;13.326;2023-07-08T04:47:44;101583.75;;;20.25;62.49
15750;BME280;7976;52.526;13.326;2023-07-08T04:50:18;101583.53;;;20.28;62.31
15750;BME280;7976;52.526;13.326;2023-07-08T04:52:44;101585.94;;;20.33;62.57
15750;BME280;7976;52.526;13.326;2023-07-08T04:55:12;101580.41;;;20.36;62.53
15750;BME280;7976;52.526;13.326;2023-07-08T04:57:39;101576.56;;;20.40;63.20
15750;BME280;7976;52.526;13.326;2023-07-08T05:00:12;101579.78;;;20.45;62.76
15750;BME280;7976;52.526;13.326;2023-07-08T05:02:43;101577.69;;;20.50;62.70
15750;BME280;7976;52.526;13.326;2023-07-08T05:05:10;101583.56;;;20.55;62.31
15750;BME280;7976;52.526;13.326;2023-07-08T05:07:37;101576.06;;;20.61;61.66
15750;BME280;7976;52.526;13.326;2023-07-08T05:10:05;101578.97;;;20.71;60.14
15750;BME280;7976;52.526;13.326;2023-07-08T05:12:32;101573.03;;;20.80;59.03
15750;BME280;7976;52.526;13.326;2023-07-08T05:14:59;101573.41;;;20.88;58.69
15750;BME280;7976;52.526;13.326;2023-07-08T05:17:27;101586.19;;;20.95;58.39
15750;BME280;7976;52.526;13.326;2023-07-08T05:19:55;101580.50;;;21.01;57.88
15750;BME280;7976;52.526;13.326;2023-07-08T05:22:23;101573.88;;;21.07;57.13
15750;BME280;7976;52.526;13.326;2023-07-08T05:24:51;101577.00;;;21.13;56.11
15750;BME280;7976;52.526;13.326;2023-07-08T05:27:21;101579.16;;;21.21;55.19
15750;BME280;7976;52.526;13.326;2023-07-08T05:29:48;101583.13;;;21.28;55.25
15750;BME280;7976;52.526;13.326;2023-07-08T05:32:16;101580.00;;;21.34;55.20
15750;BME280;7976;52.526;13.326;2023-07-08T05:34:43;101591.09;;;21.41;54.30
15750;BME280;7976;52.526;13.326;2023-07-08T05:37:11;101588.97;;;21.46;54.56
15750;BME280;7976;52.526;13.326;2023-07-08T05:39:39;101589.41;;;21.52;54.21
15750;BME280;7976;52.526;13.326;2023-07-08T05:42:06;101589.00;;;21.58;54.31
15750;BME280;7976;52.526;13.326;2023-07-08T05:44:34;101588.69;;;21.63;53.74
15750;BME280;7976;52.526;13.326;2023-07-08T05:47:01;101579.53;;;21.67;53.82
15750;BME280;7976;52.526;13.326;2023-07-08T05:49:27;101576.53;;;21.71;54.12
15750;BME280;7976;52.526;13.326;2023-07-08T05:51:54;101585.94;;;21.77;53.86
15750;BME280;7976;52.526;13.326;2023-07-08T05:54:22;101577.63;;;21.81;53.39
15750;BME280;7976;52.526;13.326;2023-07-08T05:56:49;101587.72;;;21.89;53.56
15750;BME280;7976;52.526;13.326;2023-07-08T05:59:16;101589.97;;;21.95;53.19
15750;BME280;7976;52.526;13.326;2023-07-08T06:01:43;101591.34;;;22.00;52.84
15750;BME280;7976;52.526;13.326;2023-07-08T06:04:09;101597.94;;;22.07;53.08
15750;BME280;7976;52.526;13.326;2023-07-08T06:06:36;101600.19;;;22.13;53.13
15750;BME280;7976;52.526;13.326;2023-07-08T06:09:03;101597.19;;;22.18;52.59
15750;BME280;7976;52.526;13.326;2023-07-08T06:11:31;101603.16;;;22.21;52.70
15750;BME280;7976;52.526;13.326;2023-07-08T06:13:58;101602.94;;;22.24;52.88
15750;BME280;7976;52.526;13.326;2023-07-08T06:16:25;101602.59;;;22.29;52.59
15750;BME280;7976;52.526;13.326;2023-07-08T06:18:52;101603.97;;;22.34;53.04
15750;BME280;7976;52.526;13.326;2023-07-08T06:21:18;101602.69;;;22.40;52.50
15750;BME280;7976;52.526;13.326;2023-07-08T06:23:45;101605.03;;;22.45;52.64
15750;BME280;7976;52.526;13.326;2023-07-08T06:26:12;101610.88;;;22.50;52.20
15750;BME280;7976;52.526;13.326;2023-07-08T06:28:40;101601.63;;;22.55;52.25
15750;BME280;7976;52.526;13.326;2023-07-08T06:31:07;101602.25;;;22.59;52.23
15750;BME280;7976;52.526;13.326;2023-07-08T06:33:34;101614.25;;;22.64;52.24
15750;BME280;7976;52.526;13.326;2023-07-08T06:36:01;101613.94;;;22.69;52.40
15750;BME280;7976;52.526;13.326;2023-07-08T06:38:28;101607.28;;;22.74;52.03
15750;BME280;7976;52.526;13.326;2023-07-08T06:40:55;101602.16;;;22.84;51.73
15750;BME280;7976;52.526;13.326;2023-07-08T06:43:22;101599.00;;;22.90;51.23
15750;BME280;7976;52.526;13.326;2023-07-08T06:45:56;101592.25;;;22.97;51.16
15750;BME280;7976;52.526;13.326;2023-07-08T06:48:23;101596.28;;;23.02;51.51
15750;BME280;7976;52.526;13.326;2023-07-08T06:50:51;101596.66;;;23.09;51.14
15750;BME280;7976;52.526;13.326;2023-07-08T06:53:18;101593.41;;;23.16;51.02
15750;BME280;7976;52.526;13.326;2023-07-08T06:55:45;101599.88;;;23.25;50.53
15750;BME280;7976;52.526;13.326;2023-07-08T06:58:12;101599.22;;;23.34;50.03
15750;BME280;7976;52.526;13.326;2023-07-08T07:00:42;101595.81;;;23.43;49.93
15750;BME280;7976;52.526;13.326;2023-07-08T07:03:12;101601.47;;;23.51;49.91
15750;BME280;7976;52.526;13.326;2023-07-08T07:05:39;101592.69;;;23.60;49.64
15750;BME280;7976;52.526;13.326;2023-07-08T07:08:06;101586.91;;;23.66;49.46
15750;BME280;7976;52.526;13.326;2023-07-08T07:10:33;101597.84;;;23.74;49.30
15750;BME280;7976;52.526;13.326;2023-07-08T07:13:01;101605.25;;;23.82;49.38
15750;BME280;7976;52.526;13.326;2023-07-08T07:15:28;101600.06;;;23.91;49.34
15750;BME280;7976;52.526;13.326;2023-07-08T07:17:56;101608.09;;;24.02;48.77
15750;BME280;7976;52.526;13.326;2023-07-08T07:20:25;101597.38;;;24.13;48.27
15750;BME280;7976;52.526;13.326;2023-07-08T07:22:52;101601.63;;;24.27;48.38
15750;BME280;7976;52.526;13.326;2023-07-08T07:25:20;101602.47;;;24.38;47.82
15750;BME280;7976;52.526;13.326;2023-07-08T07:27:48;101600.03;;;24.46;47.62
15750;BME280;7976;52.526;13.326;2023-07-08T07:30:15;101599.16;;;24.57;47.32
15750;BME280;7976;52.526;13.326;2023-07-08T07:32:42;101594.88;;;24.65;47.04
15750;BME280;7976;52.526;13.326;2023-07-08T07:35:10;101598.66;;;24.74;46.71
15750;BME280;7976;52.526;13.326;2023-07-08T07:37:40;101601.53;;;24.82;46.22
15750;BME280;7976;52.526;13.326;2023-07-08T07:40:09;101600.94;;;24.90;46.81
15750;BME280;7976;52.526;13.326;2023-07-08T07:42:38;101583.59;;;24.94;46.39
15750;BME280;7976;52.526;13.326;2023-07-08T07:45:06;101583.94;;;25.00;46.28
15750;BME280;7976;52.526;13.326;2023-07-08T07:47:33;101592.22;;;25.08;46.33
15750;BME280;7976;52.526;13.326;2023-07-08T07:50:01;101589.72;;;25.16;46.41
15750;BME280;7976;52.526;13.326;2023-07-08T07:52:28;101588.09;;;25.25;46.10
15750;BME280;7976;52.526;13.326;2023-07-08T07:54:56;101584.28;;;25.27;45.82
15750;BME280;7976;52.526;13.326;2023-07-08T07:57:24;101591.84;;;25.33;45.80
15750;BME280;7976;52.526;13.326;2023-07-08T07:59:51;101588.78;;;25.38;45.61
15750;BME280;7976;52.526;13.326;2023-07-08T08:02:19;101586.56;;;25.43;45.11
15750;BME280;7976;52.526;13.326;2023-07-08T08:04:46;101593.94;;;25.50;45.38
15750;BME280;7976;52.526;13.326;2023-07-08T08:07:13;101587.19;;;25.56;45.23
15750;BME280;7976;52.526;13.326;2023-07-08T08:09:40;101590.06;;;25.64;45.29
15750;BME280;7976;52.526;13.326;2023-07-08T08:12:11;101588.69;;;25.69;45.99
15750;BME280;7976;52.526;13.326;2023-07-08T08:14:38;101592.69;;;25.75;45.78
15750;BME280;7976;52.526;13.326;2023-07-08T08:17:05;101595.56;;;25.83;45.69
15750;BME280;7976;52.526;13.326;2023-07-08T08:19:32;101594.75;;;25.92;45.99
15750;BME280;7976;52.526;13.326;2023-07-08T08:21:59;101589.84;;;25.97;46.13
15750;BME280;7976;52.526;13.326;2023-07-08T08:24:26;101603.84;;;26.01;46.11
15750;BME280;7976;52.526;13.326;2023-07-08T08:26:53;101598.97;;;26.06;45.71
15750;BME280;7976;52.526;13.326;2023-07-08T08:29:21;101598.41;;;26.12;45.92
15750;BME280;7976;52.526;13.326;2023-07-08T08:31:48;101590.06;;;26.15;45.91
15750;BME280;7976;52.526;13.326;2023-07-08T08:34:16;101597.03;;;26.17;45.89
15750;BME280;7976;52.526;13.326;2023-07-08T08:36:43;101597.19;;;26.25;45.74
15750;BME280;7976;52.526;13.326;2023-07-08T08:39:10;101595.50;;;26.34;45.95
15750;BME280;7976;52.526;13.326;2023-07-08T08:41:40;101598.50;;;26.40;45.87
15750;BME280;7976;52.526;13.326;2023-07-08T08:44:15;101598.66;;;26.48;45.96
15750;BME280;7976;52.526;13.326;2023-07-08T08:46:52;101604.47;;;26.53;45.11
15750;BME280;7976;52.526;13.326;2023-07-08T08:49:29;101603.22;;;26.57;45.26
15750;BME280;7976;52.526;13.326;2023-07-08T08:52:06;101590.22;;;26.62;44.49
15750;BME280;7976;52.526;13.326;2023-07-08T08:54:41;101601.16;;;26.70;43.55
15750;BME280;7976;52.526;13.326;2023-07-08T08:57:24;101592.66;;;26.75;43.04
15750;BME280;7976;52.526;13.326;2023-07-08T08:59:57;101591.53;;;26.77;42.57
15750;BME280;7976;52.526;13.326;2023-07-08T09:02:34;101597.91;;;26.86;42.12
15750;BME280;7976;52.526;13.326;2023-07-08T09:05:05;101598.34;;;26.91;42.26
15750;BME280;7976;52.526;13.326;2023-07-08T09:07:43;101585.19;;;26.97;41.88
15750;BME280;7976;52.526;13.326;2023-07-08T09:10:31;101591.56;;;27.06;41.27
15750;BME280;7976;52.526;13.326;2023-07-08T09:13:05;101591.13;;;27.10;40.83
15750;BME280;7976;52.526;13.326;2023-07-08T09:15:32;101585.16;;;27.16;39.82
15750;BME280;7976;52.526;13.326;2023-07-08T09:18:19;101589.56;;;27.27;38.77
15750;BME280;7976;52.526;13.326;2023-07-08T09:20:47;101589.84;;;27.34;38.47
15750;BME280;7976;52.526;13.326;2023-07-08T09:23:21;101588.28;;;27.41;35.26
15750;BME280;7976;52.526;13.326;2023-07-08T09:25:55;101588.56;;;27.47;35.29
15750;BME280;7976;52.526;13.326;2023-07-08T09:28:37;101586.59;;;27.49;36.66
15750;BME280;7976;52.526;13.326;2023-07-08T09:31:07;101589.28;;;27.49;37.20
15750;BME280;7976;52.526;13.326;2023-07-08T09:33:39;101584.31;;;27.54;36.69
15750;BME280;7976;52.526;13.326;2023-07-08T09:36:17;101582.84;;;27.60;35.84
15750;BME280;7976;52.526;13.326;2023-07-08T09:38:48;101584.13;;;27.65;35.70
15750;BME280;7976;52.526;13.326;2023-07-08T09:41:30;101574.94;;;27.68;35.61
15750;BME280;7976;52.526;13.326;2023-07-08T09:44:08;101578.28;;;27.70;35.74
15750;BME280;7976;52.526;13.326;2023-07-08T09:46:39;101576.16;;;27.73;36.25
15750;BME280;7976;52.526;13.326;2023-07-08T09:49:17;101574.72;;;27.79;35.55
15750;BME280;7976;52.526;13.326;2023-07-08T09:51:47;101572.16;;;27.87;35.95
15750;BME280;7976;52.526;13.326;2023-07-08T09:54:19;101568.31;;;27.99;35.93
15750;BME280;7976;52.526;13.326;2023-07-08T09:56:58;101580.75;;;28.09;35.63
15750;BME280;7976;52.526;13.326;2023-07-08T09:59:31;101576.31;;;28.18;35.29
15750;BME280;7976;52.526;13.326;2023-07-08T10:02:12;101578.84;;;28.19;35.41
15750;BME280;7976;52.526;13.326;2023-07-08T10:04:46;101582.09;;;28.23;34.49
15750;BME280;7976;52.526;13.326;2023-07-08T10:07:16;101576.41;;;28.26;34.19
15750;BME280;7976;52.526;13.326;2023-07-08T10:09:46;101571.88;;;28.26;34.41
15750;BME280;7976;52.526;13.326;2023-07-08T10:12:15;101572.44;;;28.30;34.37
15750;BME280;7976;52.526;13.326;2023-07-08T10:14:48;101575.78;;;28.32;34.07
15750;BME280;7976;52.526;13.326;2023-07-08T10:17:19;101572.94;;;28.33;33.60
15750;BME280;7976;52.526;13.326;2023-07-08T10:19:49;101568.41;;;28.34;33.91
15750;BME280;7976;52.526;13.326;2023-07-08T10:22:34;101571.81;;;28.36;34.22
15750;BME280;7976;52.526;13.326;2023-07-08T10:25:12;101572.50;;;28.38;34.42
15750;BME280;7976;52.526;13.326;2023-07-08T10:27:52;101569.19;;;28.44;33.66
15750;BME280;7976;52.526;13.326;2023-07-08T10:30:29;101568.22;;;28.45;33.61
15750;BME280;7976;52.526;13.326;2023-07-08T10:33:29;101576.41;;;28.53;33.44
15750;BME280;7976;52.526;13.326;2023-07-08T10:36:19;101573.81;;;28.61;33.05
15750;BME280;7976;52.526;13.326;2023-07-08T10:39:17;101569.66;;;28.67;33.12
15750;BME280;7976;52.526;13.326;2023-07-08T10:41:58;101570.50;;;28.67;32.63
15750;BME280;7976;52.526;13.326;2023-07-08T10:44:37;101565.09;;;28.67;33.06
15750;BME280;7976;52.526;13.326;2023-07-08T10:47:19;101563.97;;;28.70;33.35
15750;BME280;7976;52.526;13.326;2023-07-08T10:50:11;101558.56;;;28.70;33.61
15750;BME280;7976;52.526;13.326;2023-07-08T10:53:01;101558.41;;;28.71;33.44
15750;BME280;7976;52.526;13.326;2023-07-08T10:55:40;101557.41;;;28.72;33.62
15750;BME280;7976;52.526;13.326;2023-07-08T10:58:36;101548.31;;;28.73;33.42
15750;BME280;7976;52.526;13.326;2023-07-08T11:01:17;101550.88;;;28.75;33.77
15750;BME280;7976;52.526;13.326;2023-07-08T11:07:21;101546.25;;;28.85;34.03
15750;BME280;7976;52.526;13.326;2023-07-08T11:09:57;101543.78;;;28.91;33.29
15750;BME280;7976;52.526;13.326;2023-07-08T11:12:31;101542.47;;;28.95;33.22
15750;BME280;7976;52.526;13.326;2023-07-08T11:15:11;101550.94;;;29.00;32.52
15750;BME280;7976;52.526;13.326;2023-07-08T11:17:48;101544.91;;;29.06;32.20
15750;BME280;7976;52.526;13.326;2023-07-08T11:20:23;101546.34;;;29.10;32.02
15750;BME280;7976;52.526;13.326;2023-07-08T11:23:00;101546.84;;;29.14;31.91
15750;BME280;7976;52.526;13.326;2023-07-08T11:25:33;101545.84;;;29.15;32.25
15750;BME280;7976;52.526;13.326;2023-07-08T11:28:05;101537.59;;;29.16;31.70
15750;BME280;7976;52.526;13.326;2023-07-08T11:30:39;101526.50;;;29.19;31.72
15750;BME280;7976;52.526;13.326;2023-07-08T11:33:12;101524.31;;;29.23;32.24
15750;BME280;7976;52.526;13.326;2023-07-08T11:35:45;101526.69;;;29.26;32.12
15750;BME280;7976;52.526;13.326;2023-07-08T11:38:15;101515.75;;;29.27;32.62
15750;BME280;7976;52.526;13.326;2023-07-08T11:40:55;101515.47;;;29.30;32.75
15750;BME280;7976;52.526;13.326;2023-07-08T11:43:27;101521.34;;;29.34;31.85
15750;BME280;7976;52.526;13.326;2023-07-08T11:45:57;101515.97;;;29.34;31.15
15750;BME280;7976;52.526;13.326;2023-07-08T11:48:29;101519.50;;;29.34;31.21
15750;BME280;7976;52.526;13.326;2023-07-08T11:50:58;101518.00;;;29.32;31.31
15750;BME280;7976;52.526;13.326;2023-07-08T11:53:49;101515.13;;;29.33;31.17
15750;BME280;7976;52.526;13.326;2023-07-08T11:56:24;101514.97;;;29.35;31.21
15750;BME280;7976;52.526;13.326;2023-07-08T11:59:11;101515.50;;;29.38;31.86
15750;BME280;7976;52.526;13.326;2023-07-08T12:01:46;101509.56;;;29.35;32.18
15750;BME280;7976;52.526;13.326;2023-07-08T12:04:27;101502.47;;;29.34;32.63
15750;BME280;7976;52.526;13.326;2023-07-08T12:07:08;101501.47;;;29.35;33.10
15750;BME280;7976;52.526;13.326;2023-07-08T12:09:39;101498.28;;;29.39;32.77
15750;BME280;7976;52.526;13.326;2023-07-08T12:12:24;101500.22;;;29.47;32.14
15750;BME280;7976;52.526;13.326;2023-07-08T12:15:00;101495.34;;;29.50;32.75
15750;BME280;7976;52.526;13.326;2023-07-08T12:17:29;101494.84;;;29.55;32.94
15750;BME280;7976;52.526;13.326;2023-07-08T12:20:00;101500.09;;;29.57;32.38
15750;BME280;7976;52.526;13.326;2023-07-08T12:22:30;101505.16;;;29.60;32.13
15750;BME280;7976;52.526;13.326;2023-07-08T12:24:57;101497.75;;;29.62;31.86
15750;BME280;7976;52.526;13.326;2023-07-08T12:27:32;101495.56;;;29.65;31.76
15750;BME280;7976;52.526;13.326;2023-07-08T12:29:59;101491.88;;;29.66;32.00
15750;BME280;7976;52.526;13.326;2023-07-08T12:32:25;101493.44;;;29.69;31.54
15750;BME280;7976;52.526;13.326;2023-07-08T12:34:54;101478.75;;;29.71;31.65
15750;BME280;7976;52.526;13.326;2023-07-08T12:37:22;101487.38;;;29.75;31.32
15750;BME280;7976;52.526;13.326;2023-07-08T12:39:58;101487.03;;;29.78;31.50
15750;BME280;7976;52.526;13.326;2023-07-08T12:42:31;101485.03;;;29.80;31.50
15750;BME280;7976;52.526;13.326;2023-07-08T12:44:58;101474.59;;;29.85;31.24
15750;BME280;7976;52.526;13.326;2023-07-08T12:47:25;101478.16;;;29.85;31.19
15750;BME280;7976;52.526;13.326;2023-07-08T12:49:52;101470.72;;;29.87;30.90
15750;BME280;7976;52.526;13.326;2023-07-08T12:52:23;101471.56;;;29.88;30.76
15750;BME280;7976;52.526;13.326;2023-07-08T12:54:50;101477.84;;;29.96;30.73
15750;BME280;7976;52.526;13.326;2023-07-08T12:57:18;101477.38;;;30.01;30.88
15750;BME280;7976;52.526;13.326;2023-07-08T12:59:46;101478.03;;;30.03;31.01
15750;BME280;7976;52.526;13.326;2023-07-08T13:02:17;101473.63;;;30.02;31.16
15750;BME280;7976;52.526;13.326;2023-07-08T13:04:50;101471.63;;;30.04;31.09
15750;BME280;7976;52.526;13.326;2023-07-08T13:07:29;101472.31;;;30.06;31.10
15750;BME280;7976;52.526;13.326;2023-07-08T13:09:59;101472.31;;;30.06;30.61
15750;BME280;7976;52.526;13.326;2023-07-08T13:12:26;101478.72;;;30.05;31.00